sensor_id;sensor_type;location;lat;lon;timestamp;P1;durP1;ratioP1;P2;durP2;ratioP2
38318;SDS011;24121;53.536;10.224;2023-03-20T00:02:20;55.08;;;27.85;;
38318;SDS011;24121;53.536;10.224;2023-03-20T00:04:46;41.72;;;24.55;;
38318;SDS011;24121;53.536;10.224;2023-03-20T00:07:12;57.03;;;29.70;;
38318;SDS011;24121;53.536;10.224;2023-03-20T00:09:37;55.90;;;28.60;;
38318;SDS011;24121;53.536;10.224;2023-03-20T00:12:03;63.63;;;30.10;;
38318;SDS011;24121;53.536;10.224;2023-03-20T00:14:29;54.50;;;27.77;;
38318;SDS011;24121;53.536;10.224;2023-03-20T00:16:54;48.33;;;27.20;;
38318;SDS011;24121;53.536;10.224;2023-03-20T00:19:24;53.88;;;27.95;;
38318;SDS011;24121;53.536;10.224;2023-03-20T00:24:16;55.22;;;28.67;;
38318;SDS011;24121;53.536;10.224;2023-03-20T00:26:42;59.85;;;30.52;;
38318;SDS011;24121;53.536;10.224;2023-03-20T00:29:13;67.35;;;34.15;;
38318;SDS011;24121;53.536;10.224;2023-03-20T00:31:42;66.13;;;33.85;;
38318;SDS011;24121;53.536;10.224;2023-03-20T00:34:11;82.82;;;35.13;;
38318;SDS011;24121;53.536;10.224;2023-03-20T00:36:38;61.45;;;32.97;;
38318;SDS011;24121;53.536;10.224;2023-03-20T00:39:03;64.57;;;33.15;;
38318;SDS011;24121;53.536;10.224;2023-03-20T00:48:56;59.15;;;29.98;;
38318;SDS011;24121;53.536;10.224;2023-03-20T00:51:21;65.32;;;31.10;;
38318;SDS011;24121;53.536;10.224;2023-03-20T00:53:46;64.57;;;30.55;;
38318;SDS011;24121;53.536;10.224;2023-03-20T00:56:29;61.80;;;30.55;;
38318;SDS011;24121;53.536;10.224;2023-03-20T00:58:57;60.13;;;28.95;;
38318;SDS011;24121;53.536;10.224;2023-03-20T01:01:23;64.07;;;32.33;;
38318;SDS011;24121;53.536;10.224;2023-03-20T01:03:48;55.28;;;30.15;;
38318;SDS011;24121;53.536;10.224;2023-03-20T01:06:13;63.83;;;30.95;;
38318;SDS011;24121;53.536;10.224;2023-03-20T01:08:39;67.75;;;31.63;;
38318;SDS011;24121;53.536;10.224;2023-03-20T01:11:05;58.70;;;31.33;;
38318;SDS011;24121;53.536;10.224;2023-03-20T01:13:30;79.03;;;32.75;;
38318;SDS011;24121;53.536;10.224;2023-03-20T01:15:57;63.75;;;30.23;;
38318;SDS011;24121;53.536;10.224;2023-03-20T01:18:23;62.00;;;30.80;;
38318;SDS011;24121;53.536;10.224;2023-03-20T01:20:50;75.82;;;33.72;;
38318;SDS011;24121;53.536;10.224;2023-03-20T01:23:17;70.72;;;33.20;;
38318;SDS011;24121;53.536;10.224;2023-03-20T01:25:42;64.45;;;31.38;;
38318;SDS011;24121;53.536;10.224;2023-03-20T01:28:16;107.10;;;36.58;;
38318;SDS011;24121;53.536;10.224;2023-03-20T01:30:43;62.40;;;31.13;;
38318;SDS011;24121;53.536;10.224;2023-03-20T01:33:13;72.82;;;32.95;;
38318;SDS011;24121;53.536;10.224;2023-03-20T01:35:41;68.53;;;31.15;;
38318;SDS011;24121;53.536;10.224;2023-03-20T01:38:14;49.55;;;28.75;;
38318;SDS011;24121;53.536;10.224;2023-03-20T01:40:46;70.05;;;32.38;;
38318;SDS011;24121;53.536;10.224;2023-03-20T01:43:16;66.00;;;30.27;;
38318;SDS011;24121;53.536;10.224;2023-03-20T01:45:46;66.03;;;29.77;;
38318;SDS011;24121;53.536;10.224;2023-03-20T01:48:17;58.33;;;28.63;;
38318;SDS011;24121;53.536;10.224;2023-03-20T01:50:43;51.10;;;27.00;;
38318;SDS011;24121;53.536;10.224;2023-03-20T01:53:14;57.83;;;28.83;;
38318;SDS011;24121;53.536;10.224;2023-03-20T01:55:41;51.75;;;26.98;;
38318;SDS011;24121;53.536;10.224;2023-03-20T01:58:10;48.47;;;27.23;;
38318;SDS011;24121;53.536;10.224;2023-03-20T02:00:39;51.92;;;27.30;;
38318;SDS011;24121;53.536;10.224;2023-03-20T02:03:05;52.65;;;27.30;;
38318;SDS011;24121;53.536;10.224;2023-03-20T02:05:31;49.70;;;27.48;;
38318;SDS011;24121;53.536;10.224;2023-03-20T02:08:02;47.45;;;27.55;;
38318;SDS011;24121;53.536;10.224;2023-03-20T02:10:33;47.17;;;27.92;;
38318;SDS011;24121;53.536;10.224;2023-03-20T02:12:58;51.88;;;26.27;;
38318;SDS011;24121;53.536;10.224;2023-03-20T02:15:25;50.58;;;28.67;;
38318;SDS011;24121;53.536;10.224;2023-03-20T02:17:51;52.72;;;28.45;;
38318;SDS011;24121;53.536;10.224;2023-03-20T02:20:35;48.63;;;28.63;;
38318;SDS011;24121;53.536;10.224;2023-03-20T02:23:41;50.10;;;27.88;;
38318;SDS011;24121;53.536;10.224;2023-03-20T02:29:10;55.47;;;28.10;;
38318;SDS011;24121;53.536;10.224;2023-03-20T02:32:14;53.28;;;29.10;;
38318;SDS011;24121;53.536;10.224;2023-03-20T02:35:04;54.60;;;28.17;;
38318;SDS011;24121;53.536;10.224;2023-03-20T02:43:09;46.88;;;25.55;;
38318;SDS011;24121;53.536;10.224;2023-03-20T02:45:51;48.53;;;26.02;;
38318;SDS011;24121;53.536;10.224;2023-03-20T02:48:26;50.50;;;26.23;;
38318;SDS011;24121;53.536;10.224;2023-03-20T02:51:02;46.42;;;24.65;;
38318;SDS011;24121;53.536;10.224;2023-03-20T02:56:36;48.90;;;25.05;;
38318;SDS011;24121;53.536;10.224;2023-03-20T02:59:21;50.47;;;26.15;;
38318;SDS011;24121;53.536;10.224;2023-03-20T03:01:54;46.55;;;25.02;;
38318;SDS011;24121;53.536;10.224;2023-03-20T03:04:25;49.75;;;24.67;;
38318;SDS011;24121;53.536;10.224;2023-03-20T03:06:52;41.85;;;23.10;;
38318;SDS011;24121;53.536;10.224;2023-03-20T03:09:21;47.03;;;24.13;;
38318;SDS011;24121;53.536;10.224;2023-03-20T03:11:49;56.72;;;26.67;;
38318;SDS011;24121;53.536;10.224;2023-03-20T03:15:20;56.63;;;26.52;;
38318;SDS011;24121;53.536;10.224;2023-03-20T03:17:13;62.72;;;27.02;;
38318;SDS011;24121;53.536;10.224;2023-03-20T03:19:40;52.58;;;24.27;;
38318;SDS011;24121;53.536;10.224;2023-03-20T03:22:08;54.85;;;25.75;;
38318;SDS011;24121;53.536;10.224;2023-03-20T03:24:34;47.35;;;23.08;;
38318;SDS011;24121;53.536;10.224;2023-03-20T03:27:02;41.95;;;22.20;;
38318;SDS011;24121;53.536;10.224;2023-03-20T03:29:35;42.95;;;22.15;;
38318;SDS011;24121;53.536;10.224;2023-03-20T03:32:01;48.08;;;23.05;;
38318;SDS011;24121;53.536;10.224;2023-03-20T03:34:28;46.17;;;21.80;;
38318;SDS011;24121;53.536;10.224;2023-03-20T03:36:58;47.90;;;22.15;;
38318;SDS011;24121;53.536;10.224;2023-03-20T03:39:48;34.42;;;19.15;;
38318;SDS011;24121;53.536;10.224;2023-03-20T03:42:21;43.67;;;20.33;;
38318;SDS011;24121;53.536;10.224;2023-03-20T03:45:11;38.40;;;20.10;;
38318;SDS011;24121;53.536;10.224;2023-03-20T03:47:58;45.78;;;21.02;;
38318;SDS011;24121;53.536;10.224;2023-03-20T03:50:34;40.05;;;19.73;;
38318;SDS011;24121;53.536;10.224;2023-03-20T03:53:02;39.43;;;18.67;;
38318;SDS011;24121;53.536;10.224;2023-03-20T03:55:34;36.67;;;19.45;;
38318;SDS011;24121;53.536;10.224;2023-03-20T03:58:07;42.28;;;20.90;;
38318;SDS011;24121;53.536;10.224;2023-03-20T04:00:35;43.75;;;20.77;;
38318;SDS011;24121;53.536;10.224;2023-03-20T04:03:01;38.72;;;20.08;;
38318;SDS011;24121;53.536;10.224;2023-03-20T04:05:27;40.30;;;19.88;;
38318;SDS011;24121;53.536;10.224;2023-03-20T04:08:02;43.13;;;20.88;;
38318;SDS011;24121;53.536;10.224;2023-03-20T04:10:28;46.10;;;20.57;;
38318;SDS011;24121;53.536;10.224;2023-03-20T04:12:53;35.72;;;18.98;;
38318;SDS011;24121;53.536;10.224;2023-03-20T04:15:19;30.52;;;17.30;;
38318;SDS011;24121;53.536;10.224;2023-03-20T04:17:45;34.45;;;18.20;;
38318;SDS011;24121;53.536;10.224;2023-03-20T04:20:11;28.98;;;16.13;;
38318;SDS011;24121;53.536;10.224;2023-03-20T04:22:36;28.90;;;16.77;;
38318;SDS011;24121;53.536;10.224;2023-03-20T04:25:02;29.25;;;16.50;;
38318;SDS011;24121;53.536;10.224;2023-03-20T04:27:28;26.60;;;16.20;;
38318;SDS011;24121;53.536;10.224;2023-03-20T04:29:54;23.85;;;14.55;;
38318;SDS011;24121;53.536;10.224;2023-03-20T04:32:20;24.17;;;15.13;;
38318;SDS011;24121;53.536;10.224;2023-03-20T04:34:45;25.98;;;16.02;;
38318;SDS011;24121;53.536;10.224;2023-03-20T04:37:11;26.60;;;15.13;;
38318;SDS011;24121;53.536;10.224;2023-03-20T04:39:36;28.35;;;16.58;;
38318;SDS011;24121;53.536;10.224;2023-03-20T04:42:02;27.45;;;16.30;;
38318;SDS011;24121;53.536;10.224;2023-03-20T04:44:28;28.92;;;16.88;;
38318;SDS011;24121;53.536;10.224;2023-03-20T04:46:53;26.20;;;15.05;;
38318;SDS011;24121;53.536;10.224;2023-03-20T04:49:19;31.77;;;17.15;;
38318;SDS011;24121;53.536;10.224;2023-03-20T04:51:44;32.75;;;17.50;;
38318;SDS011;24121;53.536;10.224;2023-03-20T04:54:09;27.88;;;17.40;;
38318;SDS011;24121;53.536;10.224;2023-03-20T04:56:35;30.77;;;16.52;;
38318;SDS011;24121;53.536;10.224;2023-03-20T04:59:00;27.27;;;14.48;;
38318;SDS011;24121;53.536;10.224;2023-03-20T05:01:25;27.42;;;15.75;;
38318;SDS011;24121;53.536;10.224;2023-03-20T05:03:50;27.33;;;14.85;;
38318;SDS011;24121;53.536;10.224;2023-03-20T05:06:16;24.95;;;13.40;;
38318;SDS011;24121;53.536;10.224;2023-03-20T05:08:41;24.95;;;13.77;;
38318;SDS011;24121;53.536;10.224;2023-03-20T05:11:07;22.33;;;12.57;;
38318;SDS011;24121;53.536;10.224;2023-03-20T05:13:32;22.95;;;12.10;;
38318;SDS011;24121;53.536;10.224;2023-03-20T05:15:57;24.50;;;13.32;;
38318;SDS011;24121;53.536;10.224;2023-03-20T05:18:23;23.50;;;13.38;;
38318;SDS011;24121;53.536;10.224;2023-03-20T05:20:48;24.00;;;13.98;;
38318;SDS011;24121;53.536;10.224;2023-03-20T05:23:14;21.77;;;12.70;;
38318;SDS011;24121;53.536;10.224;2023-03-20T05:25:39;19.98;;;12.68;;
38318;SDS011;24121;53.536;10.224;2023-03-20T05:28:04;19.67;;;12.55;;
38318;SDS011;24121;53.536;10.224;2023-03-20T05:30:30;19.73;;;11.93;;
38318;SDS011;24121;53.536;10.224;2023-03-20T05:32:55;19.92;;;12.00;;
38318;SDS011;24121;53.536;10.224;2023-03-20T05:35:21;17.27;;;11.40;;
38318;SDS011;24121;53.536;10.224;2023-03-20T05:37:46;18.40;;;11.52;;
38318;SDS011;24121;53.536;10.224;2023-03-20T05:40:12;17.80;;;10.65;;
38318;SDS011;24121;53.536;10.224;2023-03-20T05:42:38;18.00;;;10.95;;
38318;SDS011;24121;53.536;10.224;2023-03-20T05:45:04;16.05;;;11.00;;
38318;SDS011;24121;53.536;10.224;2023-03-20T05:47:29;15.90;;;10.52;;
38318;SDS011;24121;53.536;10.224;2023-03-20T05:49:55;18.63;;;11.30;;
38318;SDS011;24121;53.536;10.224;2023-03-20T05:52:20;17.85;;;10.25;;
38318;SDS011;24121;53.536;10.224;2023-03-20T05:54:46;17.98;;;11.25;;
38318;SDS011;24121;53.536;10.224;2023-03-20T05:57:11;16.25;;;11.13;;
38318;SDS011;24121;53.536;10.224;2023-03-20T05:59:37;17.15;;;12.05;;
38318;SDS011;24121;53.536;10.224;2023-03-20T06:02:02;20.52;;;12.85;;
38318;SDS011;24121;53.536;10.224;2023-03-20T06:04:27;17.55;;;11.82;;
38318;SDS011;24121;53.536;10.224;2023-03-20T06:06:53;16.75;;;10.98;;
38318;SDS011;24121;53.536;10.224;2023-03-20T06:09:18;16.02;;;11.57;;
38318;SDS011;24121;53.536;10.224;2023-03-20T06:11:43;18.50;;;11.95;;
38318;SDS011;24121;53.536;10.224;2023-03-20T06:14:09;17.17;;;12.25;;
38318;SDS011;24121;53.536;10.224;2023-03-20T06:16:34;18.45;;;12.85;;
38318;SDS011;24121;53.536;10.224;2023-03-20T06:19:00;18.92;;;12.10;;
38318;SDS011;24121;53.536;10.224;2023-03-20T06:21:25;20.50;;;13.18;;
38318;SDS011;24121;53.536;10.224;2023-03-20T06:23:50;19.38;;;12.65;;
38318;SDS011;24121;53.536;10.224;2023-03-20T06:26:15;20.13;;;12.25;;
38318;SDS011;24121;53.536;10.224;2023-03-20T06:28:41;21.23;;;13.93;;
38318;SDS011;24121;53.536;10.224;2023-03-20T06:31:06;22.08;;;13.88;;
38318;SDS011;24121;53.536;10.224;2023-03-20T06:33:33;18.80;;;13.43;;
38318;SDS011;24121;53.536;10.224;2023-03-20T06:35:59;22.92;;;14.90;;
38318;SDS011;24121;53.536;10.224;2023-03-20T06:38:24;20.45;;;15.00;;
38318;SDS011;24121;53.536;10.224;2023-03-20T06:40:49;18.45;;;12.45;;
38318;SDS011;24121;53.536;10.224;2023-03-20T06:43:15;21.45;;;13.55;;
38318;SDS011;24121;53.536;10.224;2023-03-20T06:45:40;18.35;;;12.35;;
38318;SDS011;24121;53.536;10.224;2023-03-20T06:48:08;20.00;;;13.05;;
38318;SDS011;24121;53.536;10.224;2023-03-20T06:50:35;19.17;;;12.57;;
38318;SDS011;24121;53.536;10.224;2023-03-20T06:53:00;18.98;;;13.55;;
38318;SDS011;24121;53.536;10.224;2023-03-20T06:55:25;22.33;;;12.43;;
38318;SDS011;24121;53.536;10.224;2023-03-20T06:57:51;15.93;;;11.55;;
38318;SDS011;24121;53.536;10.224;2023-03-20T07:00:16;14.85;;;11.18;;
38318;SDS011;24121;53.536;10.224;2023-03-20T07:02:42;18.08;;;11.35;;
38318;SDS011;24121;53.536;10.224;2023-03-20T07:05:07;15.02;;;10.95;;
38318;SDS011;24121;53.536;10.224;2023-03-20T07:07:34;16.98;;;11.18;;
38318;SDS011;24121;53.536;10.224;2023-03-20T07:10:00;14.77;;;8.70;;
38318;SDS011;24121;53.536;10.224;2023-03-20T07:12:25;13.20;;;8.88;;
38318;SDS011;24121;53.536;10.224;2023-03-20T07:14:52;13.75;;;9.18;;
38318;SDS011;24121;53.536;10.224;2023-03-20T07:17:18;11.20;;;7.88;;
38318;SDS011;24121;53.536;10.224;2023-03-20T07:19:43;11.43;;;7.18;;
38318;SDS011;24121;53.536;10.224;2023-03-20T07:22:11;10.25;;;7.05;;
38318;SDS011;24121;53.536;10.224;2023-03-20T07:24:49;11.98;;;7.45;;
38318;SDS011;24121;53.536;10.224;2023-03-20T07:27:15;13.95;;;8.48;;
38318;SDS011;24121;53.536;10.224;2023-03-20T07:29:40;11.15;;;8.20;;
38318;SDS011;24121;53.536;10.224;2023-03-20T07:32:05;12.70;;;7.70;;
38318;SDS011;24121;53.536;10.224;2023-03-20T07:34:31;12.38;;;7.95;;
38318;SDS011;24121;53.536;10.224;2023-03-20T07:36:56;12.45;;;9.23;;
38318;SDS011;24121;53.536;10.224;2023-03-20T07:39:21;13.45;;;8.60;;
38318;SDS011;24121;53.536;10.224;2023-03-20T07:41:47;15.23;;;8.73;;
38318;SDS011;24121;53.536;10.224;2023-03-20T07:44:12;13.73;;;8.07;;
38318;SDS011;24121;53.536;10.224;2023-03-20T07:46:38;16.65;;;8.85;;
38318;SDS011;24121;53.536;10.224;2023-03-20T07:49:04;15.07;;;8.23;;
38318;SDS011;24121;53.536;10.224;2023-03-20T07:51:30;13.45;;;7.60;;
38318;SDS011;24121;53.536;10.224;2023-03-20T07:53:56;8.65;;;6.38;;
38318;SDS011;24121;53.536;10.224;2023-03-20T07:56:21;12.40;;;7.40;;
38318;SDS011;24121;53.536;10.224;2023-03-20T07:58:46;10.18;;;6.85;;
38318;SDS011;24121;53.536;10.224;2023-03-20T08:01:12;12.40;;;6.78;;
38318;SDS011;24121;53.536;10.224;2023-03-20T08:03:37;9.85;;;6.95;;
38318;SDS011;24121;53.536;10.224;2023-03-20T08:06:03;9.20;;;6.13;;
38318;SDS011;24121;53.536;10.224;2023-03-20T08:08:31;10.90;;;6.22;;
38318;SDS011;24121;53.536;10.224;2023-03-20T08:10:57;8.98;;;5.78;;
38318;SDS011;24121;53.536;10.224;2023-03-20T08:13:22;8.13;;;5.88;;
38318;SDS011;24121;53.536;10.224;2023-03-20T08:15:47;11.45;;;7.30;;
38318;SDS011;24121;53.536;10.224;2023-03-20T08:18:12;10.07;;;6.47;;
38318;SDS011;24121;53.536;10.224;2023-03-20T08:20:38;9.52;;;5.80;;
38318;SDS011;24121;53.536;10.224;2023-03-20T08:23:03;8.88;;;5.70;;
38318;SDS011;24121;53.536;10.224;2023-03-20T08:25:28;9.32;;;5.85;;
38318;SDS011;24121;53.536;10.224;2023-03-20T08:27:57;11.38;;;6.53;;
38318;SDS011;24121;53.536;10.224;2023-03-20T08:30:23;11.05;;;6.15;;
38318;SDS011;24121;53.536;10.224;2023-03-20T08:32:49;9.52;;;6.45;;
38318;SDS011;24121;53.536;10.224;2023-03-20T08:35:14;14.95;;;5.90;;
38318;SDS011;24121;53.536;10.224;2023-03-20T08:37:39;12.38;;;6.30;;
38318;SDS011;24121;53.536;10.224;2023-03-20T08:40:05;9.52;;;5.82;;
38318;SDS011;24121;53.536;10.224;2023-03-20T08:42:30;8.73;;;5.55;;
38318;SDS011;24121;53.536;10.224;2023-03-20T08:44:56;9.40;;;5.65;;
38318;SDS011;24121;53.536;10.224;2023-03-20T08:47:21;7.45;;;5.90;;
38318;SDS011;24121;53.536;10.224;2023-03-20T08:49:46;9.77;;;6.45;;
38318;SDS011;24121;53.536;10.224;2023-03-20T08:52:12;9.55;;;6.00;;
38318;SDS011;24121;53.536;10.224;2023-03-20T08:54:37;10.18;;;6.45;;
38318;SDS011;24121;53.536;10.224;2023-03-20T08:57:03;15.52;;;7.15;;
38318;SDS011;24121;53.536;10.224;2023-03-20T08:59:28;10.38;;;6.25;;
38318;SDS011;24121;53.536;10.224;2023-03-20T09:01:53;9.65;;;6.65;;
38318;SDS011;24121;53.536;10.224;2023-03-20T09:04:19;9.43;;;6.85;;
38318;SDS011;24121;53.536;10.224;2023-03-20T09:06:45;11.82;;;6.63;;
38318;SDS011;24121;53.536;10.224;2023-03-20T09:09:10;13.52;;;7.78;;
38318;SDS011;24121;53.536;10.224;2023-03-20T09:11:39;13.98;;;7.88;;
38318;SDS011;24121;53.536;10.224;2023-03-20T09:14:05;13.15;;;7.90;;
38318;SDS011;24121;53.536;10.224;2023-03-20T09:16:31;10.02;;;7.78;;
38318;SDS011;24121;53.536;10.224;2023-03-20T09:18:57;13.25;;;7.82;;
38318;SDS011;24121;53.536;10.224;2023-03-20T09:21:22;13.27;;;7.88;;
38318;SDS011;24121;53.536;10.224;2023-03-20T09:23:47;11.18;;;7.60;;
38318;SDS011;24121;53.536;10.224;2023-03-20T09:26:13;9.93;;;6.50;;
38318;SDS011;24121;53.536;10.224;2023-03-20T09:28:38;11.43;;;6.93;;
38318;SDS011;24121;53.536;10.224;2023-03-20T09:31:03;8.77;;;6.32;;
38318;SDS011;24121;53.536;10.224;2023-03-20T09:33:29;8.85;;;5.70;;
38318;SDS011;24121;53.536;10.224;2023-03-20T09:35:55;10.25;;;6.03;;
38318;SDS011;24121;53.536;10.224;2023-03-20T09:38:20;8.63;;;6.30;;
38318;SDS011;24121;53.536;10.224;2023-03-20T09:40:53;8.07;;;5.13;;
38318;SDS011;24121;53.536;10.224;2023-03-20T09:54:06;7.43;;;5.55;;
38318;SDS011;24121;53.536;10.224;2023-03-20T09:56:37;8.88;;;6.50;;
38318;SDS011;24121;53.536;10.224;2023-03-20T09:59:03;8.85;;;6.20;;
38318;SDS011;24121;53.536;10.224;2023-03-20T10:01:30;8.27;;;6.47;;
38318;SDS011;24121;53.536;10.224;2023-03-20T10:04:00;7.97;;;5.72;;
38318;SDS011;24121;53.536;10.224;2023-03-20T10:06:30;10.27;;;6.13;;
38318;SDS011;24121;53.536;10.224;2023-03-20T10:08:58;8.05;;;5.57;;
38318;SDS011;24121;53.536;10.224;2023-03-20T10:19:28;11.68;;;7.13;;
38318;SDS011;24121;53.536;10.224;2023-03-20T10:24:31;8.98;;;6.40;;
38318;SDS011;24121;53.536;10.224;2023-03-20T10:27:02;10.90;;;7.53;;
38318;SDS011;24121;53.536;10.224;2023-03-20T10:30:11;10.77;;;6.65;;
38318;SDS011;24121;53.536;10.224;2023-03-20T10:32:45;11.30;;;7.40;;
38318;SDS011;24121;53.536;10.224;2023-03-20T10:37:51;9.68;;;7.93;;
38318;SDS011;24121;53.536;10.224;2023-03-20T10:40:34;12.70;;;6.70;;
38318;SDS011;24121;53.536;10.224;2023-03-20T10:43:03;11.02;;;7.65;;
38318;SDS011;24121;53.536;10.224;2023-03-20T10:48:00;15.07;;;7.70;;
38318;SDS011;24121;53.536;10.224;2023-03-20T10:50:33;12.25;;;7.07;;
38318;SDS011;24121;53.536;10.224;2023-03-20T10:53:02;10.45;;;7.72;;
38318;SDS011;24121;53.536;10.224;2023-03-20T10:55:30;11.75;;;7.90;;
38318;SDS011;24121;53.536;10.224;2023-03-20T10:58:01;12.68;;;6.65;;
38318;SDS011;24121;53.536;10.224;2023-03-20T11:00:33;11.80;;;7.00;;
38318;SDS011;24121;53.536;10.224;2023-03-20T11:02:58;11.27;;;7.50;;
38318;SDS011;24121;53.536;10.224;2023-03-20T11:08:06;11.45;;;7.00;;
38318;SDS011;24121;53.536;10.224;2023-03-20T11:10:33;13.73;;;7.15;;
38318;SDS011;24121;53.536;10.224;2023-03-20T11:13:03;13.27;;;7.32;;
38318;SDS011;24121;53.536;10.224;2023-03-20T11:15:40;9.80;;;6.82;;
38318;SDS011;24121;53.536;10.224;2023-03-20T11:18:08;8.90;;;7.40;;
38318;SDS011;24121;53.536;10.224;2023-03-20T11:21:00;8.63;;;6.57;;
38318;SDS011;24121;53.536;10.224;2023-03-20T11:23:24;10.55;;;6.18;;
38318;SDS011;24121;53.536;10.224;2023-03-20T11:25:58;12.95;;;6.00;;
38318;SDS011;24121;53.536;10.224;2023-03-20T11:30:56;10.73;;;6.00;;
38318;SDS011;24121;53.536;10.224;2023-03-20T11:33:32;11.65;;;6.55;;
38318;SDS011;24121;53.536;10.224;2023-03-20T11:36:01;11.32;;;6.28;;
38318;SDS011;24121;53.536;10.224;2023-03-20T11:38:34;10.27;;;6.35;;
38318;SDS011;24121;53.536;10.224;2023-03-20T11:41:15;10.52;;;6.32;;
38318;SDS011;24121;53.536;10.224;2023-03-20T11:43:41;9.63;;;6.10;;
38318;SDS011;24121;53.536;10.224;2023-03-20T11:46:07;10.02;;;6.10;;
38318;SDS011;24121;53.536;10.224;2023-03-20T11:48:38;12.10;;;5.72;;
38318;SDS011;24121;53.536;10.224;2023-03-20T11:51:09;10.55;;;5.72;;
38318;SDS011;24121;53.536;10.224;2023-03-20T11:56:13;9.82;;;5.93;;
38318;SDS011;24121;53.536;10.224;2023-03-20T12:01:52;9.43;;;5.43;;
38318;SDS011;24121;53.536;10.224;2023-03-20T12:04:19;9.60;;;6.15;;
38318;SDS011;24121;53.536;10.224;2023-03-20T12:07:08;11.07;;;5.82;;
38318;SDS011;24121;53.536;10.224;2023-03-20T12:12:32;11.23;;;6.20;;
38318;SDS011;24121;53.536;10.224;2023-03-20T12:23:13;8.60;;;5.10;;
38318;SDS011;24121;53.536;10.224;2023-03-20T12:33:43;10.35;;;5.38;;
38318;SDS011;24121;53.536;10.224;2023-03-20T12:36:15;10.65;;;5.65;;
38318;SDS011;24121;53.536;10.224;2023-03-20T12:38:42;12.88;;;5.57;;
38318;SDS011;24121;53.536;10.224;2023-03-20T12:54:21;10.02;;;5.50;;
38318;SDS011;24121;53.536;10.224;2023-03-20T13:02:14;9.52;;;5.35;;
38318;SDS011;24121;53.536;10.224;2023-03-20T13:04:53;8.57;;;5.68;;
38318;SDS011;24121;53.536;10.224;2023-03-20T13:07:30;8.50;;;5.50;;
38318;SDS011;24121;53.536;10.224;2023-03-20T13:10:21;8.68;;;5.78;;
38318;SDS011;24121;53.536;10.224;2023-03-20T13:12:58;12.27;;;5.70;;
38318;SDS011;24121;53.536;10.224;2023-03-20T13:21:03;10.52;;;6.32;;
38318;SDS011;24121;53.536;10.224;2023-03-20T13:39:45;9.35;;;5.68;;
38318;SDS011;24121;53.536;10.224;2023-03-20T13:42:14;7.35;;;5.03;;
38318;SDS011;24121;53.536;10.224;2023-03-20T13:44:42;9.00;;;5.55;;
38318;SDS011;24121;53.536;10.224;2023-03-20T13:47:12;7.53;;;4.93;;
38318;SDS011;24121;53.536;10.224;2023-03-20T13:52:29;9.63;;;5.40;;
38318;SDS011;24121;53.536;10.224;2023-03-20T14:00:30;6.43;;;4.55;;
38318;SDS011;24121;53.536;10.224;2023-03-20T14:05:53;7.68;;;5.10;;
38318;SDS011;24121;53.536;10.224;2023-03-20T14:14:05;8.97;;;5.47;;
38318;SDS011;24121;53.536;10.224;2023-03-20T14:16:35;9.02;;;5.30;;
38318;SDS011;24121;53.536;10.224;2023-03-20T14:19:05;9.05;;;5.50;;
38318;SDS011;24121;53.536;10.224;2023-03-20T14:21:32;9.45;;;5.40;;
38318;SDS011;24121;53.536;10.224;2023-03-20T14:24:16;10.15;;;6.18;;
38318;SDS011;24121;53.536;10.224;2023-03-20T14:26:45;8.98;;;5.13;;
38318;SDS011;24121;53.536;10.224;2023-03-20T14:31:37;8.97;;;5.50;;
38318;SDS011;24121;53.536;10.224;2023-03-20T14:36:44;10.20;;;5.75;;
38318;SDS011;24121;53.536;10.224;2023-03-20T14:42:11;10.23;;;5.40;;
38318;SDS011;24121;53.536;10.224;2023-03-20T14:44:48;8.50;;;4.83;;
38318;SDS011;24121;53.536;10.224;2023-03-20T14:57:41;7.70;;;4.40;;
38318;SDS011;24121;53.536;10.224;2023-03-20T15:02:50;7.80;;;4.57;;
38318;SDS011;24121;53.536;10.224;2023-03-20T15:05:23;9.18;;;4.43;;
38318;SDS011;24121;53.536;10.224;2023-03-20T15:07:50;10.98;;;5.45;;
38318;SDS011;24121;53.536;10.224;2023-03-20T15:10:16;9.15;;;4.95;;
38318;SDS011;24121;53.536;10.224;2023-03-20T15:12:42;6.50;;;4.35;;
38318;SDS011;24121;53.536;10.224;2023-03-20T15:15:17;11.30;;;5.32;;
38318;SDS011;24121;53.536;10.224;2023-03-20T15:22:51;11.95;;;5.35;;
38318;SDS011;24121;53.536;10.224;2023-03-20T15:25:18;9.18;;;5.57;;
38318;SDS011;24121;53.536;10.224;2023-03-20T15:27:45;11.15;;;5.43;;
38318;SDS011;24121;53.536;10.224;2023-03-20T15:30:12;9.95;;;5.50;;
38318;SDS011;24121;53.536;10.224;2023-03-20T15:32:40;12.20;;;5.95;;
38318;SDS011;24121;53.536;10.224;2023-03-20T15:35:10;7.85;;;4.82;;
38318;SDS011;24121;53.536;10.224;2023-03-20T15:37:39;11.85;;;5.72;;
38318;SDS011;24121;53.536;10.224;2023-03-20T15:40:10;11.60;;;6.03;;
38318;SDS011;24121;53.536;10.224;2023-03-20T15:42:37;10.77;;;5.57;;
38318;SDS011;24121;53.536;10.224;2023-03-20T15:45:12;9.32;;;5.10;;
38318;SDS011;24121;53.536;10.224;2023-03-20T15:47:41;9.10;;;5.70;;
38318;SDS011;24121;53.536;10.224;2023-03-20T15:50:10;10.95;;;6.10;;
38318;SDS011;24121;53.536;10.224;2023-03-20T15:52:41;10.18;;;5.88;;
38318;SDS011;24121;53.536;10.224;2023-03-20T15:55:11;8.85;;;5.78;;
38318;SDS011;24121;53.536;10.224;2023-03-20T15:57:40;10.40;;;5.70;;
38318;SDS011;24121;53.536;10.224;2023-03-20T16:00:12;10.82;;;6.30;;
38318;SDS011;24121;53.536;10.224;2023-03-20T16:02:40;11.23;;;5.65;;
38318;SDS011;24121;53.536;10.224;2023-03-20T16:05:12;11.98;;;6.53;;
38318;SDS011;24121;53.536;10.224;2023-03-20T16:07:39;9.73;;;6.05;;
38318;SDS011;24121;53.536;10.224;2023-03-20T16:12:50;11.43;;;6.43;;
38318;SDS011;24121;53.536;10.224;2023-03-20T16:15:18;11.63;;;6.97;;
38318;SDS011;24121;53.536;10.224;2023-03-20T16:17:44;10.98;;;6.85;;
38318;SDS011;24121;53.536;10.224;2023-03-20T16:20:13;14.48;;;7.45;;
38318;SDS011;24121;53.536;10.224;2023-03-20T16:22:40;13.18;;;6.75;;
38318;SDS011;24121;53.536;10.224;2023-03-20T16:25:08;10.95;;;6.60;;
38318;SDS011;24121;53.536;10.224;2023-03-20T16:27:37;13.30;;;7.22;;
38318;SDS011;24121;53.536;10.224;2023-03-20T16:30:05;12.40;;;6.47;;
38318;SDS011;24121;53.536;10.224;2023-03-20T16:33:15;11.88;;;6.50;;
38318;SDS011;24121;53.536;10.224;2023-03-20T16:35:26;10.73;;;6.45;;
38318;SDS011;24121;53.536;10.224;2023-03-20T16:38:13;9.88;;;6.82;;
38318;SDS011;24121;53.536;10.224;2023-03-20T16:40:40;11.32;;;7.03;;
38318;SDS011;24121;53.536;10.224;2023-03-20T16:43:16;9.93;;;6.90;;
38318;SDS011;24121;53.536;10.224;2023-03-20T16:45:48;13.10;;;7.85;;
38318;SDS011;24121;53.536;10.224;2023-03-20T16:48:19;13.25;;;7.50;;
38318;SDS011;24121;53.536;10.224;2023-03-20T16:50:48;11.63;;;7.43;;
38318;SDS011;24121;53.536;10.224;2023-03-20T16:53:27;13.25;;;8.77;;
38318;SDS011;24121;53.536;10.224;2023-03-20T16:55:54;14.57;;;8.95;;
38318;SDS011;24121;53.536;10.224;2023-03-20T16:58:28;11.82;;;7.82;;
38318;SDS011;24121;53.536;10.224;2023-03-20T17:01:01;12.52;;;7.80;;
38318;SDS011;24121;53.536;10.224;2023-03-20T17:03:30;13.63;;;8.43;;
38318;SDS011;24121;53.536;10.224;2023-03-20T17:08:35;13.30;;;7.30;;
38318;SDS011;24121;53.536;10.224;2023-03-20T17:11:09;12.10;;;7.32;;
38318;SDS011;24121;53.536;10.224;2023-03-20T17:13:37;11.05;;;7.70;;
38318;SDS011;24121;53.536;10.224;2023-03-20T17:16:02;12.27;;;8.45;;